Time;durP1;ratioP1;P1;durP2;ratioP2;P2;SDS_P1;SDS_P2;PMS_P1;PMS_P2;Temp;Humidity;BMP_temperature;BMP_pressure;BME280_temperature;BME280_humidity;BME280_pressure;Samples;Min_cycle;Max_cycle;Signal;HPM_P1;HPM_P2
2024/01/18 00:00:01;;;;;;;;;;;;;;;21.52;23.93;97400.91;5001518;28;1914;-74
2024/01/18 00:02:30;;;;;;;;;;;;;;;21.80;23.42;97394.19;5018902;28;903;-74
2024/01/18 00:04:56;;;;;;;;;;;;;;;21.84;23.53;97394.84;5024053;28;1210;-74
2024/01/18 00:07:22;;;;;;;;;;;;;;;21.41;23.78;97386.34;5038869;28;923;-74
2024/01/18 00:09:47;;;;;;;;;;;;;;;21.11;24.35;97382.91;5004722;28;1252;-75
2024/01/18 00:12:13;;;;;;;;;;;;;;;21.18;24.39;97376.97;5021540;28;893;-74
2024/01/18 00:14:39;;;;;;;;;;;;;;;21.49;24.04;97379.97;5021117;28;1858;-75
2024/01/18 00:17:04;;;;;;;;;;;;;;;21.68;23.63;97375.25;5020857;28;1025;-75
2024/01/18 00:19:30;;;;;;;;;;;;;;;21.85;23.46;97365.28;5020658;28;1910;-75
2024/01/18 00:21:55;;;;;;;;;;;;;;;21.78;23.41;97374.06;5000017;28;1206;-74
2024/01/18 00:24:21;;;;;;;;;;;;;;;21.92;23.54;97371.94;5000218;28;982;-75
2024/01/18 00:26:46;;;;;;;;;;;;;;;21.68;23.77;97366.75;4999848;28;1387;-74
2024/01/18 00:29:12;;;;;;;;;;;;;;;21.71;23.56;97363.00;5016572;28;932;-74
2024/01/18 00:31:38;;;;;;;;;;;;;;;21.79;23.67;97352.97;5000091;28;934;-74
2024/01/18 00:34:03;;;;;;;;;;;;;;;21.26;24.13;97355.69;4983652;28;1078;-74
2024/01/18 00:36:29;;;;;;;;;;;;;;;21.00;24.73;97354.97;5000135;28;965;-74
2024/01/18 00:38:54;;;;;;;;;;;;;;;21.41;24.09;97349.56;4975480;28;1981;-74
2024/01/18 00:41:20;;;;;;;;;;;;;;;21.63;23.93;97339.03;4960947;28;1191;-75
2024/01/18 00:43:47;;;;;;;;;;;;;;;21.71;23.65;97340.34;4976808;28;1014;-74
2024/01/18 00:46:13;;;;;;;;;;;;;;;21.85;23.62;97339.78;4945183;28;991;-74
2024/01/18 00:48:38;;;;;;;;;;;;;;;21.68;23.70;97329.94;4976854;28;1017;-74
2024/01/18 00:51:04;;;;;;;;;;;;;;;21.69;23.90;97331.50;4944847;28;983;-75
2024/01/18 00:53:29;;;;;;;;;;;;;;;21.65;23.71;97330.84;4976877;28;972;-74
2024/01/18 00:55:55;;;;;;;;;;;;;;;21.91;23.33;97331.47;4960592;28;966;-75
2024/01/18 00:58:21;;;;;;;;;;;;;;;21.43;24.22;97332.91;4944619;28;1311;-74
2024/01/18 01:00:47;;;;;;;;;;;;;;;21.12;24.45;97327.91;4976396;28;1907;-74
2024/01/18 01:03:12;;;;;;;;;;;;;;;21.14;24.67;97322.59;4976610;28;970;-74
2024/01/18 01:05:38;;;;;;;;;;;;;;;21.31;24.34;97318.34;4960172;28;1153;-74
2024/01/18 01:08:04;;;;;;;;;;;;;;;21.62;24.00;97308.34;4976769;28;985;-75
2024/01/18 01:10:30;;;;;;;;;;;;;;;21.63;23.86;97310.72;5009566;28;1036;-74
2024/01/18 01:12:55;;;;;;;;;;;;;;;21.77;23.47;97307.34;5003729;28;1226;-74
2024/01/18 01:15:21;;;;;;;;;;;;;;;21.72;23.98;97305.13;5019966;28;940;-74
2024/01/18 01:17:46;;;;;;;;;;;;;;;21.90;23.75;97295.13;5037547;28;958;-74
2024/01/18 01:20:12;;;;;;;;;;;;;;;21.55;23.98;97292.41;5003266;28;1988;-74
2024/01/18 01:22:38;;;;;;;;;;;;;;;21.40;24.40;97285.69;5019696;28;919;-74
2024/01/18 01:25:03;;;;;;;;;;;;;;;21.07;24.60;97280.41;5003458;28;1153;-75
2024/01/18 01:27:29;;;;;;;;;;;;;;;21.37;24.14;97275.31;5019561;28;1243;-74
2024/01/18 01:29:54;;;;;;;;;;;;;;;21.60;24.03;97277.66;5019647;28;994;-75
2024/01/18 01:32:20;;;;;;;;;;;;;;;21.64;24.00;97275.47;5036887;28;915;-75
2024/01/18 01:34:46;;;;;;;;;;;;;;;21.63;24.12;97276.75;5019815;28;1149;-74
2024/01/18 01:37:13;;;;;;;;;;;;;;;21.36;24.23;97279.41;5002992;28;968;-74
2024/01/18 01:39:39;;;;;;;;;;;;;;;21.11;24.61;97275.41;5014533;28;1989;-74
2024/01/18 01:42:05;;;;;;;;;;;;;;;20.96;25.04;97272.28;4998605;28;960;-75
2024/01/18 01:44:30;;;;;;;;;;;;;;;21.09;24.56;97277.91;4998339;28;1013;-74
2024/01/18 01:46:56;;;;;;;;;;;;;;;21.57;24.11;97267.28;4998482;28;984;-74
2024/01/18 01:49:21;;;;;;;;;;;;;;;21.98;23.54;97273.78;4997956;28;981;-74
2024/01/18 01:51:48;;;;;;;;;;;;;;;21.74;23.67;97271.44;5015152;28;954;-74
2024/01/18 01:54:14;;;;;;;;;;;;;;;21.79;23.87;97264.41;4998247;28;1003;-74
2024/01/18 01:56:40;;;;;;;;;;;;;;;21.70;23.79;97262.31;4998366;28;968;-74
2024/01/18 01:59:08;;;;;;;;;;;;;;;21.82;23.61;97261.44;5014417;28;1906;-74
2024/01/18 02:01:33;;;;;;;;;;;;;;;21.33;24.17;97252.81;4998320;28;951;-74
2024/01/18 02:03:59;;;;;;;;;;;;;;;21.25;24.39;97252.25;4998458;28;1003;-74
2024/01/18 02:06:24;;;;;;;;;;;;;;;21.42;24.32;97237.94;5014320;28;988;-74
2024/01/18 02:08:50;;;;;;;;;;;;;;;21.57;24.01;97239.75;4978564;28;1172;-74
2024/01/18 02:11:16;;;;;;;;;;;;;;;21.72;23.91;97239.22;4962386;28;1008;-74
2024/01/18 02:13:41;;;;;;;;;;;;;;;21.78;24.02;97232.47;4994556;28;987;-74
2024/01/18 02:16:07;;;;;;;;;;;;;;;21.66;23.97;97233.34;4994591;28;1024;-75
2024/01/18 02:18:35;;;;;;;;;;;;;;;21.85;23.74;97226.50;4994527;28;1006;-74
2024/01/18 02:21:00;;;;;;;;;;;;;;;21.82;23.80;97221.78;4994866;28;1910;-74
2024/01/18 02:23:26;;;;;;;;;;;;;;;21.26;24.36;97219.88;4978377;28;974;-74
2024/01/18 02:25:51;;;;;;;;;;;;;;;21.17;24.69;97222.63;4994587;28;978;-74
2024/01/18 02:28:17;;;;;;;;;;;;;;;21.37;24.51;97221.53;4994261;28;966;-75
2024/01/18 02:30:43;;;;;;;;;;;;;;;21.44;24.14;97213.56;4994832;28;952;-74
2024/01/18 02:33:08;;;;;;;;;;;;;;;21.50;24.09;97216.56;4978258;28;1296;-74
2024/01/18 02:35:34;;;;;;;;;;;;;;;21.65;23.86;97211.16;4977857;28;977;-74
2024/01/18 02:37:59;;;;;;;;;;;;;;;21.47;24.34;97214.69;4994327;28;1059;-74
2024/01/18 02:40:25;;;;;;;;;;;;;;;21.82;23.82;97204.81;5009072;28;1910;-74
2024/01/18 02:42:50;;;;;;;;;;;;;;;21.40;24.40;97201.63;4981770;28;959;-74
2024/01/18 02:45:16;;;;;;;;;;;;;;;21.16;24.46;97198.44;4981270;28;975;-74
2024/01/18 02:47:42;;;;;;;;;;;;;;;21.18;24.53;97201.59;4958813;28;955;-74
2024/01/18 02:50:07;;;;;;;;;;;;;;;21.39;24.48;97188.69;4974640;28;985;-75
2024/01/18 02:52:33;;;;;;;;;;;;;;;21.66;24.20;97185.22;4958935;28;1184;-74
2024/01/18 02:54:59;;;;;;;;;;;;;;;21.83;24.06;97189.38;4958722;28;1109;-74
2024/01/18 02:57:25;;;;;;;;;;;;;;;21.82;24.05;97187.81;4974729;28;1083;-75
2024/01/18 02:59:50;;;;;;;;;;;;;;;21.99;23.74;97173.38;4974840;28;1985;-74
2024/01/18 03:02:16;;;;;;;;;;;;;;;21.51;23.99;97178.56;4961584;28;1292;-75
2024/01/18 03:04:42;;;;;;;;;;;;;;;21.04;25.01;97173.84;4978503;28;1218;-74
2024/01/18 03:07:08;;;;;;;;;;;;;;;21.06;25.04;97177.00;4966107;28;922;-74
2024/01/18 03:09:33;;;;;;;;;;;;;;;21.44;24.19;97173.94;4998075;28;996;-75
2024/01/18 03:11:59;;;;;;;;;;;;;;;21.81;23.86;97174.91;4997829;28;969;-74
2024/01/18 03:14:24;;;;;;;;;;;;;;;21.83;23.62;97178.06;4997995;28;948;-74
2024/01/18 03:16:50;;;;;;;;;;;;;;;21.19;24.82;97174.91;4997819;28;936;-75
2024/01/18 03:19:16;;;;;;;;;;;;;;;20.94;24.92;97180.69;4998149;28;1914;-74
2024/01/18 03:21:41;;;;;;;;;;;;;;;21.24;24.61;97171.47;4998218;28;974;-74
2024/01/18 03:24:07;;;;;;;;;;;;;;;21.57;24.42;97168.19;4979737;28;1069;-75
2024/01/18 03:26:33;;;;;;;;;;;;;;;21.66;23.86;97173.91;4997816;28;965;-74
2024/01/18 03:28:59;;;;;;;;;;;;;;;21.68;24.12;97167.78;4997643;28;1027;-75
2024/01/18 03:31:24;;;;;;;;;;;;;;;21.76;23.90;97171.88;4997887;28;1105;-75
2024/01/18 03:33:50;;;;;;;;;;;;;;;21.79;23.71;97171.75;4997559;28;1055;-75
2024/01/18 03:36:15;;;;;;;;;;;;;;;21.22;24.75;97171.13;4978324;28;1127;-74
2024/01/18 03:38:41;;;;;;;;;;;;;;;20.99;24.92;97168.78;4978278;28;1906;-74
2024/01/18 03:41:07;;;;;;;;;;;;;;;21.38;24.51;97170.13;4978063;28;981;-74
2024/01/18 03:43:32;;;;;;;;;;;;;;;21.54;24.43;97166.28;4978262;28;978;-74
2024/01/18 03:45:58;;;;;;;;;;;;;;;21.57;24.11;97165.38;4978376;28;1088;-74
2024/01/18 03:48:23;;;;;;;;;;;;;;;21.50;24.17;97159.97;4977960;28;1061;-74
2024/01/18 03:50:49;;;;;;;;;;;;;;;21.63;24.22;97163.50;4978072;28;921;-74
2024/01/18 03:53:14;;;;;;;;;;;;;;;21.32;24.57;97161.47;4977835;28;1003;-74
2024/01/18 03:55:41;;;;;;;;;;;;;;;21.33;24.55;97157.38;4977940;28;955;-74
2024/01/18 03:58:06;;;;;;;;;;;;;;;21.37;24.64;97156.47;4977763;28;950;-74
2024/01/18 04:00:32;;;;;;;;;;;;;;;21.68;24.13;97160.06;4981215;28;1977;-74
2024/01/18 04:02:58;;;;;;;;;;;;;;;21.75;23.83;97156.16;5000648;28;929;-74
2024/01/18 04:05:23;;;;;;;;;;;;;;;21.81;23.80;97157.91;5000469;28;1191;-74
2024/01/18 04:07:49;;;;;;;;;;;;;;;21.77;23.96;97157.28;5012265;28;1135;-75
2024/01/18 04:10:14;;;;;;;;;;;;;;;21.25;24.61;97150.41;5018837;28;958;-75
2024/01/18 04:12:40;;;;;;;;;;;;;;;21.08;24.75;97154.69;5001128;28;1272;-74
2024/01/18 04:15:06;;;;;;;;;;;;;;;21.30;24.75;97147.00;5017744;28;952;-75
2024/01/18 04:17:31;;;;;;;;;;;;;;;21.59;24.48;97157.19;5017930;28;938;-75
2024/01/18 04:19:57;;;;;;;;;;;;;;;21.79;24.00;97149.09;5018892;28;1969;-74
2024/01/18 04:22:23;;;;;;;;;;;;;;;21.96;23.89;97149.59;5018874;28;958;-75
2024/01/18 04:24:48;;;;;;;;;;;;;;;21.69;24.00;97150.31;5000607;28;1087;-74
2024/01/18 04:27:14;;;;;;;;;;;;;;;21.28;24.51;97146.63;5001278;28;1068;-74
2024/01/18 04:29:39;;;;;;;;;;;;;;;21.02;25.02;97148.06;5035870;28;1053;-74
2024/01/18 04:32:05;;;;;;;;;;;;;;;21.17;24.76;97143.44;5019867;28;949;-75
2024/01/18 04:34:31;;;;;;;;;;;;;;;21.52;24.59;97137.66;5036229;28;1029;-74
2024/01/18 04:36:57;;;;;;;;;;;;;;;21.67;24.05;97150.00;5020135;28;953;-74
2024/01/18 04:39:23;;;;;;;;;;;;;;;21.84;23.71;97150.53;5019302;28;1910;-74
2024/01/18 04:41:48;;;;;;;;;;;;;;;22.01;23.71;97145.38;5019623;28;999;-74
2024/01/18 04:44:14;;;;;;;;;;;;;;;21.86;23.54;97148.00;5019391;28;989;-74
2024/01/18 04:46:39;;;;;;;;;;;;;;;21.42;24.42;97144.53;5019468;28;926;-74
2024/01/18 04:49:05;;;;;;;;;;;;;;;21.09;24.82;97153.47;4999474;28;1220;-74
2024/01/18 04:51:30;;;;;;;;;;;;;;;21.61;24.23;97159.56;4999469;28;1271;-74
2024/01/18 04:53:56;;;;;;;;;;;;;;;21.73;23.95;97162.28;5015927;28;928;-75
2024/01/18 04:56:22;;;;;;;;;;;;;;;21.81;23.89;97160.75;5015730;28;921;-75
2024/01/18 04:58:47;;;;;;;;;;;;;;;21.70;24.23;97151.09;5015514;28;1914;-74
2024/01/18 05:01:13;;;;;;;;;;;;;;;21.25;24.77;97152.44;4999208;28;981;-74
2024/01/18 05:03:38;;;;;;;;;;;;;;;21.05;24.87;97147.13;5015851;28;976;-74
2024/01/18 05:06:04;;;;;;;;;;;;;;;21.09;24.94;97153.47;5015274;28;1064;-74
2024/01/18 05:08:30;;;;;;;;;;;;;;;21.48;24.27;97145.50;4999326;28;953;-74
2024/01/18 05:10:55;;;;;;;;;;;;;;;21.91;23.90;97149.44;5015668;28;976;-75
2024/01/18 05:13:21;;;;;;;;;;;;;;;21.63;24.45;97140.84;5015514;28;1013;-74
2024/01/18 05:15:46;;;;;;;;;;;;;;;21.76;23.88;97144.38;5015665;28;1208;-74
2024/01/18 05:18:13;;;;;;;;;;;;;;;21.57;24.25;97148.38;4998961;28;968;-75
2024/01/18 05:20:39;;;;;;;;;;;;;;;21.23;24.53;97137.97;5015144;28;1902;-74
2024/01/18 05:23:06;;;;;;;;;;;;;;;21.14;25.14;97130.22;4998926;28;988;-75
2024/01/18 05:25:32;;;;;;;;;;;;;;;21.50;24.53;97138.13;5015095;28;1027;-74
2024/01/18 05:27:58;;;;;;;;;;;;;;;21.76;24.24;97129.41;4959908;28;988;-75
2024/01/18 05:30:23;;;;;;;;;;;;;;;21.82;23.87;97128.34;4960059;28;1064;-75
2024/01/18 05:32:49;;;;;;;;;;;;;;;21.81;23.87;97129.59;4976020;28;970;-75
2024/01/18 05:35:15;;;;;;;;;;;;;;;21.93;23.97;97129.94;4976023;28;1071;-74
2024/01/18 05:37:40;;;;;;;;;;;;;;;21.66;23.93;97120.13;4990529;28;1017;-74
2024/01/18 05:40:09;;;;;;;;;;;;;;;21.17;24.93;97120.00;4979126;28;1906;-75
2024/01/18 05:42:35;;;;;;;;;;;;;;;21.04;24.89;97120.13;4979267;28;1269;-74
2024/01/18 05:45:00;;;;;;;;;;;;;;;21.50;24.60;97121.16;4962766;28;1446;-74
2024/01/18 05:47:26;;;;;;;;;;;;;;;21.66;24.14;97114.44;4979382;28;946;-74
2024/01/18 05:49:51;;;;;;;;;;;;;;;21.73;24.30;97119.81;4979306;28;983;-74
2024/01/18 05:52:17;;;;;;;;;;;;;;;21.68;24.40;97117.59;4997970;28;1016;-75
2024/01/18 05:54:43;;;;;;;;;;;;;;;21.78;24.13;97113.53;4998362;28;924;-75
2024/01/18 05:57:09;;;;;;;;;;;;;;;21.45;24.58;97110.44;4998231;28;958;-74
2024/01/18 05:59:34;;;;;;;;;;;;;;;21.81;23.87;97111.78;4998387;28;1965;-71
2024/01/18 06:02:00;;;;;;;;;;;;;;;21.46;24.32;97112.00;4998381;28;975;-72
2024/01/18 06:04:25;;;;;;;;;;;;;;;21.40;24.69;97104.56;4984903;28;1614;-72
2024/01/18 06:06:51;;;;;;;;;;;;;;;21.14;25.07;97110.44;5037492;28;1017;-72
2024/01/18 06:09:18;;;;;;;;;;;;;;;21.58;24.26;97107.50;4997664;28;1286;-72
2024/01/18 06:11:44;;;;;;;;;;;;;;;21.65;24.49;97103.56;4997929;28;978;-72
2024/01/18 06:14:10;;;;;;;;;;;;;;;21.60;24.23;97102.13;4998186;28;954;-73
2024/01/18 06:16:35;;;;;;;;;;;;;;;21.84;23.98;97097.50;4997996;28;1235;-73
2024/01/18 06:19:01;;;;;;;;;;;;;;;22.02;23.84;97104.44;4981770;28;1894;-72
2024/01/18 06:21:26;;;;;;;;;;;;;;;21.77;24.09;97106.31;4981861;28;921;-73
2024/01/18 06:23:52;;;;;;;;;;;;;;;21.41;24.76;97094.84;4985215;28;1090;-72
2024/01/18 06:26:17;;;;;;;;;;;;;;;21.12;24.98;97107.25;4975072;28;928;-72
2024/01/18 06:28:43;;;;;;;;;;;;;;;21.53;24.46;97096.78;4975063;28;795;-71
2024/01/18 06:31:09;;;;;;;;;;;;;;;21.53;24.78;97106.06;4975018;28;1355;-72
2024/01/18 06:33:34;;;;;;;;;;;;;;;22.01;24.07;97098.00;4958947;28;1171;-72
2024/01/18 06:36:00;;;;;;;;;;;;;;;21.74;24.29;97097.94;4958693;28;1190;-72
2024/01/18 06:38:26;;;;;;;;;;;;;;;21.34;24.61;97095.91;4974646;28;787;-73
2024/01/18 06:40:52;;;;;;;;;;;;;;;21.36;24.60;97101.91;4974728;28;1922;-72
2024/01/18 06:43:17;;;;;;;;;;;;;;;21.66;24.45;97097.47;4974925;28;882;-72
2024/01/18 06:45:43;;;;;;;;;;;;;;;21.85;24.22;97099.06;4980529;28;908;-72
2024/01/18 06:48:09;;;;;;;;;;;;;;;21.89;24.12;97089.66;5001779;28;782;-72
2024/01/18 06:50:35;;;;;;;;;;;;;;;21.69;24.46;97093.69;5018346;28;1106;-72
2024/01/18 06:53:02;;;;;;;;;;;;;;;21.95;24.02;97093.44;5018365;28;902;-72
2024/01/18 06:55:28;;;;;;;;;;;;;;;21.55;24.31;97099.91;5001413;28;1185;-73
2024/01/18 06:57:54;;;;;;;;;;;;;;;21.19;25.11;97095.69;4977863;28;932;-72
2024/01/18 07:00:19;;;;;;;;;;;;;;;21.04;25.11;97097.50;4977745;28;1993;-71
2024/01/18 07:02:46;;;;;;;;;;;;;;;21.45;24.85;97098.31;4978159;28;790;-72
2024/01/18 07:05:12;;;;;;;;;;;;;;;21.51;24.49;97096.47;4977869;28;1058;-73
2024/01/18 07:07:37;;;;;;;;;;;;;;;21.66;24.39;97086.16;4994283;28;915;-72
2024/01/18 07:10:04;;;;;;;;;;;;;;;21.82;24.38;97082.25;4978082;28;831;-72
2024/01/18 07:12:29;;;;;;;;;;;;;;;21.89;24.26;97084.78;4977874;28;792;-72
2024/01/18 07:14:56;;;;;;;;;;;;;;;21.61;24.60;97075.44;4978316;28;799;-72
2024/01/18 07:17:22;;;;;;;;;;;;;;;21.84;24.16;97069.19;4977730;28;790;-72
2024/01/18 07:19:49;;;;;;;;;;;;;;;21.50;24.54;97069.41;4993944;28;1967;-73
2024/01/18 07:22:15;;;;;;;;;;;;;;;21.16;25.16;97073.97;4994245;28;802;-71
2024/01/18 07:24:41;;;;;;;;;;;;;;;20.89;25.63;97060.47;4977946;28;773;-72
2024/01/18 07:27:09;;;;;;;;;;;;;;;21.43;24.67;97052.72;4977902;28;1119;-72
2024/01/18 07:29:37;;;;;;;;;;;;;;;21.70;24.24;97068.97;5013751;28;910;-72
2024/01/18 07:32:03;;;;;;;;;;;;;;;21.67;24.60;97056.56;5001565;28;1268;-72
2024/01/18 07:34:30;;;;;;;;;;;;;;;21.45;24.58;97064.34;5001441;28;1116;-73
2024/01/18 07:36:56;;;;;;;;;;;;;;;21.77;24.14;97066.66;5035702;28;770;-73
2024/01/18 07:39:21;;;;;;;;;;;;;;;21.44;24.53;97066.41;5035298;28;1910;-72
2024/01/18 07:41:47;;;;;;;;;;;;;;;21.09;25.21;97068.59;5017830;28;823;-72
2024/01/18 07:44:12;;;;;;;;;;;;;;;20.95;25.37;97060.66;5017865;28;1122;-72
2024/01/18 07:46:38;;;;;;;;;;;;;;;21.61;24.35;97071.81;5017885;28;898;-72
2024/01/18 07:49:04;;;;;;;;;;;;;;;21.58;24.56;97062.19;5056683;28;1180;-72
2024/01/18 07:51:30;;;;;;;;;;;;;;;21.77;24.40;97063.81;5056623;28;796;-73
2024/01/18 07:53:55;;;;;;;;;;;;;;;21.83;24.09;97059.13;5040287;28;797;-72
2024/01/18 07:56:21;;;;;;;;;;;;;;;21.88;24.11;97054.88;5023659;28;1067;-72
2024/01/18 07:58:47;;;;;;;;;;;;;;;21.85;24.19;97062.25;5040002;28;778;-72
2024/01/18 08:01:16;;;;;;;;;;;;;;;21.99;23.87;97060.09;5056714;28;1972;-72
2024/01/18 08:03:42;;;;;;;;;;;;;;;21.59;24.34;97063.78;5039926;28;790;-72
2024/01/18 08:06:08;;;;;;;;;;;;;;;21.14;25.23;97065.16;5040088;28;1053;-73
2024/01/18 08:08:33;;;;;;;;;;;;;;;21.50;24.87;97046.75;5022767;28;1215;-72
2024/01/18 08:10:59;;;;;;;;;;;;;;;21.58;24.82;97048.06;5040069;28;904;-72
2024/01/18 08:13:25;;;;;;;;;;;;;;;21.85;24.32;97055.81;5039901;28;771;-72
2024/01/18 08:15:51;;;;;;;;;;;;;;;21.53;24.71;97051.50;5023278;28;759;-72
2024/01/18 08:18:17;;;;;;;;;;;;;;;21.79;24.40;97047.16;5056443;28;723;-72
2024/01/18 08:20:43;;;;;;;;;;;;;;;21.91;24.47;97048.25;5023110;28;1914;-72
2024/01/18 08:23:10;;;;;;;;;;;;;;;21.65;24.35;97041.28;5055955;28;845;-72
2024/01/18 08:25:36;;;;;;;;;;;;;;;21.33;24.78;97041.38;5036978;28;954;-72
2024/01/18 08:28:02;;;;;;;;;;;;;;;21.27;25.23;97029.06;5038407;28;759;-72
2024/01/18 08:30:27;;;;;;;;;;;;;;;21.55;25.01;97032.00;5038238;28;783;-72
2024/01/18 08:32:53;;;;;;;;;;;;;;;21.76;24.43;97014.13;5038371;28;821;-72
2024/01/18 08:35:18;;;;;;;;;;;;;;;21.77;24.44;97027.03;5038174;28;715;-73
2024/01/18 08:37:45;;;;;;;;;;;;;;;21.78;24.38;97022.94;4996493;28;945;-71
2024/01/18 08:40:12;;;;;;;;;;;;;;;21.72;24.54;97018.34;4980325;28;1993;-72
2024/01/18 08:42:37;;;;;;;;;;;;;;;21.81;24.47;97010.66;4980697;28;873;-73
2024/01/18 08:45:04;;;;;;;;;;;;;;;22.07;24.12;97016.81;4963928;28;1074;-71
2024/01/18 08:47:29;;;;;;;;;;;;;;;21.77;24.20;97014.91;4996584;28;778;-73
2024/01/18 08:49:55;;;;;;;;;;;;;;;21.43;24.67;97013.09;4964055;28;1290;-72
2024/01/18 08:52:21;;;;;;;;;;;;;;;21.18;25.14;97014.88;4996200;28;892;-72
2024/01/18 08:54:47;;;;;;;;;;;;;;;21.33;25.08;97003.78;4979785;28;1146;-71
2024/01/18 08:57:13;;;;;;;;;;;;;;;21.76;24.42;97018.97;4980134;28;1082;-72
2024/01/18 08:59:38;;;;;;;;;;;;;;;21.78;24.49;97011.59;4978631;28;1911;-72
2024/01/18 09:02:04;;;;;;;;;;;;;;;21.93;24.27;97011.00;4979985;28;866;-72
2024/01/18 09:04:29;;;;;;;;;;;;;;;21.48;25.05;97016.09;4995670;28;1084;-73
2024/01/18 09:06:55;;;;;;;;;;;;;;;20.99;25.57;97013.25;4979854;28;846;-72
2024/01/18 09:09:21;;;;;;;;;;;;;;;21.12;25.70;96994.13;5010775;28;980;-72
2024/01/18 09:11:46;;;;;;;;;;;;;;;21.20;25.42;96992.59;5020155;28;736;-73
2024/01/18 09:14:12;;;;;;;;;;;;;;;21.59;25.00;96990.16;5019834;28;1121;-72
2024/01/18 09:16:38;;;;;;;;;;;;;;;21.97;24.09;96972.75;4979658;28;1127;-71
2024/01/18 09:19:03;;;;;;;;;;;;;;;21.82;24.35;96969.75;4979499;28;1910;-72
2024/01/18 09:21:29;;;;;;;;;;;;;;;21.59;24.58;96964.69;4963242;28;990;-71
2024/01/18 09:23:56;;;;;;;;;;;;;;;21.52;25.03;96953.69;4996083;28;1049;-72
2024/01/18 09:26:21;;;;;;;;;;;;;;;21.25;25.12;96968.56;4996312;28;925;-72
2024/01/18 09:28:47;;;;;;;;;;;;;;;21.66;24.68;96958.75;4979535;28;771;-72
2024/01/18 09:31:13;;;;;;;;;;;;;;;21.88;24.54;96958.59;4979742;28;779;-72
2024/01/18 09:33:38;;;;;;;;;;;;;;;22.07;24.01;96953.69;4996009;28;854;-72
2024/01/18 09:36:04;;;;;;;;;;;;;;;21.57;24.78;96950.25;4995599;28;854;-72
2024/01/18 09:38:30;;;;;;;;;;;;;;;21.38;25.35;96959.94;4963526;28;1152;-73
2024/01/18 09:41:04;;;;;;;;;;;;;;;21.38;25.22;96962.78;4979310;28;1987;-71
2024/01/18 09:43:32;;;;;;;;;;;;;;;21.63;24.87;96948.34;4979193;28;791;-72
2024/01/18 09:45:57;;;;;;;;;;;;;;;21.49;25.01;96943.31;4979372;28;1242;-72
2024/01/18 09:48:25;;;;;;;;;;;;;;;21.94;24.49;96933.25;4995316;28;807;-72
2024/01/18 09:50:51;;;;;;;;;;;;;;;21.50;24.78;96933.53;4999050;28;1328;-72
2024/01/18 09:53:17;;;;;;;;;;;;;;;21.10;25.37;96927.97;4998902;28;809;-72
2024/01/18 09:55:43;;;;;;;;;;;;;;;21.33;25.41;96922.53;4982369;28;923;-72
2024/01/18 09:58:12;;;;;;;;;;;;;;;21.67;24.80;96905.75;4982669;28;870;-73
2024/01/18 10:00:39;;;;;;;;;;;;;;;21.97;24.34;96909.66;5014810;28;1987;-72
2024/01/18 10:03:04;;;;;;;;;;;;;;;21.91;24.64;96911.53;4982058;28;878;-71
2024/01/18 10:05:30;;;;;;;;;;;;;;;21.73;24.69;96913.13;4998220;28;1223;-72
2024/01/18 10:07:56;;;;;;;;;;;;;;;21.78;24.54;96909.66;5014660;28;740;-72
2024/01/18 10:10:21;;;;;;;;;;;;;;;21.81;24.56;96900.25;4982333;28;1583;-72
2024/01/18 10:12:48;;;;;;;;;;;;;;;21.61;24.97;96899.94;5014785;28;747;-74
2024/01/18 10:15:28;;;;;;;;;;;;;;;21.09;25.81;96896.06;4966305;28;1065;-74
2024/01/18 10:17:53;;;;;;;;;;;;;;;21.13;25.77;96885.38;5016048;28;747;-74
2024/01/18 10:20:19;;;;;;;;;;;;;;;21.46;25.19;96882.00;5001178;28;1906;-74
2024/01/18 10:22:44;;;;;;;;;;;;;;;21.76;24.74;96866.88;5004865;28;1932;-74
2024/01/18 10:25:12;;;;;;;;;;;;;;;21.92;24.78;96876.31;5018748;28;1385;-74
2024/01/18 10:27:39;;;;;;;;;;;;;;;21.47;25.10;96863.75;5019031;28;810;-74
2024/01/18 10:30:04;;;;;;;;;;;;;;;21.27;25.34;96864.97;5002175;28;1489;-74
2024/01/18 10:32:30;;;;;;;;;;;;;;;21.13;25.53;96859.91;5002803;28;810;-74
2024/01/18 10:34:56;;;;;;;;;;;;;;;21.56;25.05;96858.09;5018831;28;1331;-75
2024/01/18 10:37:21;;;;;;;;;;;;;;;21.70;24.71;96851.78;5018721;28;1343;-74
2024/01/18 10:39:47;;;;;;;;;;;;;;;21.57;24.91;96854.00;4994505;28;1906;-74
2024/01/18 10:42:13;;;;;;;;;;;;;;;21.79;24.73;96848.16;4978784;28;836;-74
2024/01/18 10:44:40;;;;;;;;;;;;;;;21.83;24.60;96849.56;4962498;28;1125;-75
2024/01/18 10:47:11;;;;;;;;;;;;;;;21.59;24.93;96842.97;4978615;28;744;-75
2024/01/18 10:49:37;;;;;;;;;;;;;;;21.16;25.57;96829.91;4978026;28;857;-74
2024/01/18 10:52:04;;;;;;;;;;;;;;;21.16;25.75;96827.88;4962277;28;1068;-74
2024/01/18 10:54:30;;;;;;;;;;;;;;;21.76;24.82;96820.78;4962192;28;1362;-74
2024/01/18 10:56:56;;;;;;;;;;;;;;;21.84;24.61;96825.66;4978228;28;760;-74
2024/01/18 10:59:22;;;;;;;;;;;;;;;21.92;24.70;96828.94;4994676;28;1918;-74
2024/01/18 11:01:47;;;;;;;;;;;;;;;22.02;24.48;96821.19;4978500;28;1219;-74
2024/01/18 11:04:13;;;;;;;;;;;;;;;21.96;24.75;96811.78;4962261;28;1069;-75
2024/01/18 11:06:38;;;;;;;;;;;;;;;21.46;25.21;96802.75;4962148;28;1118;-75
2024/01/18 11:09:04;;;;;;;;;;;;;;;21.26;25.52;96800.38;4978375;28;783;-75
2024/01/18 11:11:30;;;;;;;;;;;;;;;21.18;25.74;96799.88;5010480;28;808;-74
2024/01/18 11:13:55;;;;;;;;;;;;;;;21.33;25.79;96795.19;5018107;28;780;-75
2024/01/18 11:16:21;;;;;;;;;;;;;;;21.71;24.99;96774.09;5018541;28;1094;-74
2024/01/18 11:18:50;;;;;;;;;;;;;;;21.66;25.08;96777.56;5018333;28;733;-74
2024/01/18 11:21:15;;;;;;;;;;;;;;;21.83;24.81;96775.16;5018167;28;1906;-74
2024/01/18 11:23:41;;;;;;;;;;;;;;;21.77;24.88;96772.19;5021540;28;771;-75
2024/01/18 11:26:07;;;;;;;;;;;;;;;21.47;25.19;96770.38;5005867;28;1154;-74
2024/01/18 11:28:33;;;;;;;;;;;;;;;21.35;25.42;96774.94;5005562;28;838;-74
2024/01/18 11:31:02;;;;;;;;;;;;;;;21.49;25.25;96767.81;5021994;28;779;-74
2024/01/18 11:33:28;;;;;;;;;;;;;;;21.96;24.79;96772.13;5022374;28;716;-75
2024/01/18 11:35:53;;;;;;;;;;;;;;;22.00;24.58;96767.06;5022361;28;756;-74
2024/01/18 11:38:25;;;;;;;;;;;;;;;21.69;24.78;96759.63;4997905;28;889;-74
2024/01/18 11:40:52;;;;;;;;;;;;;;;21.19;25.74;96756.22;4998041;28;1977;-74
2024/01/18 11:43:17;;;;;;;;;;;;;;;21.21;25.96;96748.03;4965538;28;1198;-73
2024/01/18 11:45:54;;;;;;;;;;;;;;;21.67;25.21;96739.50;4923826;29;983;-74
2024/01/18 11:48:19;;;;;;;;;;;;;;;21.89;24.88;96739.28;4924185;29;839;-76
2024/01/18 11:50:45;;;;;;;;;;;;;;;22.05;24.40;96736.06;4923712;29;938;-73
2024/01/18 11:53:14;;;;;;;;;;;;;;;21.52;25.22;96732.94;4923944;29;859;-73
2024/01/18 11:55:48;;;;;;;;;;;;;;;21.27;25.93;96729.16;4908701;29;685;-72
2024/01/18 11:58:14;;;;;;;;;;;;;;;21.52;25.45;96732.94;4924183;29;929;-73
2024/01/18 12:00:40;;;;;;;;;;;;;;;21.57;25.65;96740.78;4939231;29;1980;-73
2024/01/18 12:03:07;;;;;;;;;;;;;;;21.46;25.52;96740.50;4923745;29;902;-73
2024/01/18 12:05:33;;;;;;;;;;;;;;;21.79;25.20;96729.22;4939686;29;1062;-73
2024/01/18 12:07:58;;;;;;;;;;;;;;;21.66;25.46;96732.28;4923766;29;773;-73
2024/01/18 12:10:26;;;;;;;;;;;;;;;21.23;25.92;96722.88;4943942;28;943;-73
2024/01/18 12:12:52;;;;;;;;;;;;;;;21.13;26.33;96718.50;4977766;28;965;-73
2024/01/18 12:15:18;;;;;;;;;;;;;;;21.44;26.10;96734.50;4945708;28;833;-72
2024/01/18 12:17:44;;;;;;;;;;;;;;;21.66;25.34;96732.28;4961475;28;839;-73
2024/01/18 12:20:16;;;;;;;;;;;;;;;21.75;25.28;96734.28;4961507;28;1903;-73
2024/01/18 12:22:43;;;;;;;;;;;;;;;21.67;25.46;96733.06;4964652;28;940;-72
2024/01/18 12:25:08;;;;;;;;;;;;;;;21.82;25.20;96726.25;5004884;28;863;-73
2024/01/18 12:27:34;;;;;;;;;;;;;;;21.46;25.71;96723.53;5004929;28;1131;-73
2024/01/18 12:29:59;;;;;;;;;;;;;;;21.31;25.80;96718.50;5020801;28;784;-72
2024/01/18 12:32:25;;;;;;;;;;;;;;;21.04;26.41;96721.34;5020888;28;703;-73
2024/01/18 12:34:50;;;;;;;;;;;;;;;21.43;25.99;96702.59;5038274;28;806;-73
2024/01/18 12:37:16;;;;;;;;;;;;;;;21.92;25.18;96712.06;5021111;28;773;-73
2024/01/18 12:39:41;;;;;;;;;;;;;;;22.11;25.03;96722.06;5038378;28;2017;-73
2024/01/18 12:42:07;;;;;;;;;;;;;;;21.65;25.49;96705.22;4996413;28;917;-73
2024/01/18 12:44:32;;;;;;;;;;;;;;;21.10;26.19;96702.47;4996821;28;902;-73
2024/01/18 12:46:59;;;;;;;;;;;;;;;21.38;25.91;96691.13;4996779;28;847;-73
2024/01/18 12:49:25;;;;;;;;;;;;;;;21.66;25.75;96683.34;4980333;28;859;-73
2024/01/18 12:51:53;;;;;;;;;;;;;;;21.92;25.29;96687.34;4980460;28;898;-73
2024/01/18 12:54:19;;;;;;;;;;;;;;;22.13;24.69;96679.09;4957824;28;887;-73